createdAt,value
2019-04-23T00:00:21.877Z,3.50
2019-04-23T00:05:41.739Z,3.93
2019-04-23T00:08:07.388Z,3.93
2019-04-23T00:10:53.803Z,4.03
2019-04-23T00:12:59.397Z,3.63
2019-04-23T00:16:10.866Z,3.53
2019-04-23T00:18:37.773Z,4.20
2019-04-23T00:21:13.843Z,4.20
2019-04-23T00:23:57.212Z,4.50
2019-04-23T00:26:25.734Z,4.10
2019-04-23T00:28:56.396Z,4.50
2019-04-23T00:31:23.972Z,4.17
2019-04-23T00:33:52.702Z,4.03
2019-04-23T00:36:27.218Z,3.93
2019-04-23T00:38:51.286Z,3.57
2019-04-23T00:41:25.282Z,4.10
2019-04-23T00:43:54.616Z,4.07
2019-04-23T00:46:23.386Z,4.10
2019-04-23T00:48:57.926Z,3.63
2019-04-23T00:51:22.347Z,4.33
2019-04-23T00:53:56.587Z,4.17
2019-04-23T01:01:37.402Z,4.07
2019-04-23T01:04:01.982Z,4.40
2019-04-23T01:06:28.819Z,4.73
2019-04-23T01:09:03.768Z,4.70
2019-04-23T01:14:06.709Z,4.20
2019-04-23T01:16:33.329Z,4.23
2019-04-23T01:19:17.691Z,4.30
2019-04-23T01:21:30.592Z,5.00
2019-04-23T01:24:12.256Z,4.50
2019-04-23T01:27:33.881Z,4.50
2019-04-23T01:29:59.988Z,4.40
2019-04-23T01:32:20.925Z,4.57
2019-04-23T01:34:55.964Z,4.87
2019-04-23T01:37:25.620Z,4.80
2019-04-23T01:39:57.807Z,4.47
2019-04-23T01:42:35.698Z,4.00
2019-04-23T01:45:03.435Z,4.87
2019-04-23T01:47:33.701Z,4.63
2019-04-23T01:50:08.255Z,4.87
2019-04-23T01:55:01.539Z,4.70
2019-04-23T01:57:37.728Z,4.87
2019-04-23T02:00:14.214Z,4.90
2019-04-23T02:02:43.177Z,4.20
2019-04-23T02:05:14.177Z,4.80
2019-04-23T02:07:47.223Z,4.90
2019-04-23T02:10:14.173Z,4.37
2019-04-23T02:12:42.298Z,4.57
2019-04-23T02:15:11.499Z,4.97
2019-04-23T02:17:44.307Z,5.10
2019-04-23T02:20:19.263Z,5.77
2019-04-23T02:23:07.954Z,4.00
2019-04-23T02:25:44.300Z,4.10
2019-04-23T02:28:07.528Z,4.27
2019-04-23T02:35:55.868Z,4.40
2019-04-23T02:40:54.971Z,4.70
2019-04-23T02:45:58.777Z,4.40
2019-04-23T02:48:24.952Z,4.93
2019-04-23T02:50:47.836Z,4.30
2019-04-23T02:56:07.627Z,4.30
2019-04-23T02:58:26.405Z,4.40
2019-04-23T03:08:27.258Z,4.27
2019-04-23T03:11:23.444Z,4.80
2019-04-23T03:13:43.865Z,6.23
2019-04-23T03:16:40.151Z,5.30
2019-04-23T03:19:34.062Z,4.50
2019-04-23T03:22:03.445Z,5.10
2019-04-23T03:25:10.270Z,4.07
2019-04-23T03:27:28.650Z,5.13
2019-04-23T03:30:12.146Z,4.90
2019-04-23T03:37:33.941Z,5.47
2019-04-23T03:40:03.958Z,7.00
2019-04-23T03:42:38.647Z,5.63
2019-04-23T03:47:34.907Z,4.63
2019-04-23T03:55:28.051Z,5.43
2019-04-23T04:02:54.314Z,5.03
2019-04-23T04:05:10.768Z,4.70
2019-04-23T04:07:49.271Z,4.80
2019-04-23T04:10:05.044Z,4.97
2019-04-23T04:12:39.313Z,4.77
2019-04-23T04:17:55.261Z,4.63
2019-04-23T04:23:11.345Z,5.03
2019-04-23T04:27:54.032Z,5.20
2019-04-23T04:30:23.670Z,4.63
2019-04-23T04:32:58.923Z,4.43
2019-04-23T04:40:39.171Z,4.73
2019-04-23T04:48:00.468Z,5.17
2019-04-23T04:50:26.890Z,4.37
2019-04-23T04:55:26.292Z,5.00
2019-04-23T04:58:12.905Z,4.90
2019-04-23T05:00:54.292Z,5.40
2019-04-23T05:03:17.421Z,5.53
2019-04-23T05:05:59.320Z,5.20
2019-04-23T05:10:45.718Z,5.87
2019-04-23T05:15:28.331Z,5.30
2019-04-23T05:20:52.939Z,5.20
2019-04-23T05:25:49.946Z,5.13
2019-04-23T05:28:32.982Z,5.30
2019-04-23T05:33:23.784Z,5.53
2019-04-23T05:38:35.931Z,5.77
2019-04-23T05:41:03.224Z,6.20
2019-04-23T05:43:26.172Z,5.90
2019-04-23T05:46:04.713Z,6.87
2019-04-23T05:48:47.224Z,5.73
2019-04-23T05:51:04.552Z,7.00
2019-04-23T05:53:33.797Z,6.60
2019-04-23T05:56:02.168Z,6.30
2019-04-23T05:58:39.970Z,5.73
2019-04-23T06:01:32.491Z,9.27
2019-04-23T06:03:58.228Z,6.10
2019-04-23T06:06:36.126Z,6.20
2019-04-23T06:08:53.139Z,6.20
2019-04-23T06:11:28.460Z,6.03
2019-04-23T06:14:02.196Z,6.30
2019-04-23T06:16:31.420Z,5.70
2019-04-23T06:19:02.728Z,5.20
2019-04-23T06:21:29.003Z,5.40
2019-04-23T06:24:07.562Z,5.73
2019-04-23T06:28:59.420Z,5.90
2019-04-23T06:31:31.205Z,6.10
2019-04-23T06:34:09.847Z,5.90
2019-04-23T06:36:32.316Z,5.87
2019-04-23T06:39:02.863Z,5.47
2019-04-23T06:41:39.018Z,6.77
2019-04-23T06:44:19.580Z,5.13
2019-04-23T06:46:50.669Z,5.33
2019-04-23T06:49:20.081Z,5.30
2019-04-23T06:51:52.198Z,6.30
2019-04-23T06:54:20.842Z,6.10
2019-04-23T06:57:05.458Z,5.50
2019-04-23T06:59:22.288Z,6.60
2019-04-23T07:01:53.246Z,5.17
2019-04-23T07:09:13.376Z,5.47
2019-04-23T07:11:48.282Z,6.83
2019-04-23T07:14:28.751Z,6.50
2019-04-23T07:16:52.551Z,5.83
2019-04-23T07:21:59.272Z,5.47
2019-04-23T07:24:26.363Z,5.47
2019-04-23T07:26:55.946Z,6.20
2019-04-23T07:29:47.052Z,6.45
2019-04-23T07:31:59.278Z,6.50
2019-04-23T07:34:28.245Z,6.97
2019-04-23T07:37:05.096Z,6.43
2019-04-23T07:40:21.625Z,7.20
2019-04-23T07:42:56.687Z,5.70
2019-04-23T07:46:12.079Z,5.97
2019-04-23T07:48:29.133Z,5.40
2019-04-23T07:51:07.768Z,6.03
2019-04-23T07:53:39.867Z,6.30
2019-04-23T07:56:31.858Z,6.30
2019-04-23T07:58:33.543Z,6.37
2019-04-23T08:01:09.705Z,5.67
2019-04-23T08:03:45.086Z,7.43
2019-04-23T08:06:22.008Z,5.90
2019-04-23T08:08:43.893Z,6.33
2019-04-23T08:18:55.523Z,5.93
2019-04-23T08:21:20.111Z,5.43
2019-04-23T08:24:07.026Z,6.70
2019-04-23T08:26:53.516Z,6.53
2019-04-23T08:29:24.899Z,6.40
2019-04-23T08:34:36.893Z,5.60
2019-04-23T08:37:04.662Z,6.70
2019-04-23T08:39:42.186Z,6.40
2019-04-23T08:45:22.716Z,5.70
2019-04-23T08:48:05.190Z,6.07
2019-04-23T08:50:27.712Z,7.17
2019-04-23T08:53:03.844Z,6.13
2019-04-23T08:55:32.581Z,5.00
2019-04-23T08:58:04.539Z,5.90
2019-04-23T09:00:32.658Z,5.87
2019-04-23T09:03:04.954Z,5.73
2019-04-23T09:05:45.051Z,5.50
2019-04-23T09:08:25.338Z,5.67
2019-04-23T09:10:41.120Z,5.70
2019-04-23T09:13:37.702Z,5.20
2019-04-23T09:18:11.769Z,5.53
2019-04-23T09:20:30.555Z,5.77
2019-04-23T09:23:13.675Z,6.10
2019-04-23T09:28:24.133Z,5.77
2019-04-23T09:30:51.260Z,5.40
2019-04-23T09:36:33.672Z,5.40
2019-04-23T09:39:12.505Z,5.97
2019-04-23T09:42:03.328Z,5.20
2019-04-23T09:45:03.866Z,5.40
2019-04-23T09:48:04.713Z,5.20
2019-04-23T09:50:41.437Z,5.33
2019-04-23T09:58:13.847Z,4.90
2019-04-23T10:01:00.381Z,5.40
2019-04-23T10:03:09.278Z,5.17
2019-04-23T10:05:33.590Z,5.37
2019-04-23T10:08:03.711Z,4.33
2019-04-23T10:10:26.151Z,4.83
2019-04-23T10:12:55.754Z,5.43
2019-04-23T10:15:32.406Z,4.50
2019-04-23T10:17:56.332Z,4.67
2019-04-23T10:20:26.767Z,4.50
2019-04-23T10:22:56.687Z,4.97
2019-04-23T10:25:25.929Z,6.23
2019-04-23T10:28:01.071Z,4.33
2019-04-23T10:30:26.978Z,4.90
2019-04-23T10:32:57.720Z,5.90
2019-04-23T10:35:38.579Z,4.43
2019-04-23T10:38:04.166Z,4.40
2019-04-23T10:40:33.828Z,4.83
2019-04-23T10:43:00.035Z,4.97
2019-04-23T10:45:55.581Z,5.40
2019-04-23T10:49:22.588Z,5.00
2019-04-23T10:51:55.063Z,5.47
2019-04-23T10:54:24.672Z,5.30
2019-04-23T11:02:09.937Z,4.57
2019-04-23T11:04:53.411Z,4.40
2019-04-23T11:12:24.242Z,3.77
2019-04-23T11:14:49.724Z,6.03
2019-04-23T11:17:19.425Z,5.03
2019-04-23T11:19:59.160Z,4.63
2019-04-23T11:22:39.287Z,4.10
2019-04-23T11:27:24.479Z,4.77
2019-04-23T11:30:21.679Z,3.90
2019-04-23T11:33:00.739Z,3.93
2019-04-23T11:35:31.185Z,3.93
2019-04-23T11:37:52.699Z,3.30
2019-04-23T11:40:15.553Z,4.00
2019-04-23T11:42:54.454Z,4.80
2019-04-23T11:45:28.241Z,3.77
2019-04-23T11:52:49.567Z,3.43
2019-04-23T11:57:59.386Z,3.73
2019-04-23T12:00:28.400Z,3.63
2019-04-23T12:03:10.920Z,3.50
2019-04-23T12:06:00.554Z,3.63
2019-04-23T12:08:47.519Z,3.60
2019-04-23T12:14:22.080Z,3.37
2019-04-23T12:19:53.103Z,3.87
2019-04-23T12:22:15.570Z,4.30
2019-04-23T12:27:09.651Z,4.10
2019-04-23T12:29:44.536Z,3.87
2019-04-23T12:32:43.200Z,3.60
2019-04-23T12:34:59.497Z,4.10
2019-04-23T12:37:49.388Z,4.53
2019-04-23T12:40:19.886Z,3.60
2019-04-23T12:48:02.215Z,4.60
2019-04-23T12:50:44.065Z,3.60
2019-04-23T12:58:11.534Z,4.20
2019-04-23T13:00:27.191Z,4.30
2019-04-23T13:05:26.656Z,4.10
2019-04-23T13:08:15.814Z,4.40
2019-04-23T13:10:43.654Z,5.30
2019-04-23T13:15:30.861Z,4.90
2019-04-23T13:25:55.847Z,3.30
2019-04-23T13:28:23.646Z,4.10
2019-04-23T13:33:34.706Z,4.00
2019-04-23T13:36:01.096Z,3.73
2019-04-23T13:38:34.922Z,4.07
2019-04-23T13:41:01.102Z,3.70
2019-04-23T13:43:36.407Z,4.00
2019-04-23T13:46:13.188Z,3.23
2019-04-23T13:48:24.774Z,3.47
2019-04-23T13:51:08.887Z,4.57
2019-04-23T13:53:42.698Z,3.50
2019-04-23T13:56:04.031Z,3.93
2019-04-23T13:58:37.385Z,3.43
2019-04-23T14:01:18.625Z,3.50
2019-04-23T14:03:41.154Z,4.13
2019-04-23T14:06:16.516Z,3.50
2019-04-23T14:08:49.626Z,3.87
2019-04-23T14:13:49.864Z,3.47
2019-04-23T14:16:21.139Z,3.23
2019-04-23T14:18:56.132Z,4.03
2019-04-23T14:21:22.028Z,2.93
2019-04-23T14:24:04.661Z,3.53
2019-04-23T14:28:46.417Z,3.90
2019-04-23T14:31:30.403Z,5.93
2019-04-23T14:34:00.123Z,3.70
2019-04-23T14:36:32.885Z,3.57
2019-04-23T14:41:23.408Z,3.07
2019-04-23T14:46:43.839Z,3.07
2019-04-23T14:48:56.951Z,2.70
2019-04-23T14:54:12.915Z,3.40
2019-04-23T14:56:39.588Z,2.80
2019-04-23T15:01:35.697Z,2.87
2019-04-23T15:04:27.241Z,2.93
2019-04-23T15:07:01.122Z,3.20
2019-04-23T15:09:27.644Z,3.87
2019-04-23T15:12:04.593Z,2.93
2019-04-23T15:14:33.869Z,3.17
2019-04-23T15:17:00.089Z,2.87
2019-04-23T15:19:55.189Z,3.03
2019-04-23T15:22:12.527Z,3.17
2019-04-23T15:29:24.877Z,2.97
2019-04-23T15:32:11.815Z,3.07
2019-04-23T15:34:45.347Z,2.50
2019-04-23T15:37:19.122Z,3.10
2019-04-23T15:39:49.534Z,2.93
2019-04-23T15:44:48.496Z,2.40
2019-04-23T15:47:19.675Z,2.70
2019-04-23T15:49:53.175Z,2.70
2019-04-23T15:52:18.872Z,2.60
2019-04-23T15:54:50.916Z,2.90
2019-04-23T15:57:28.361Z,3.10
2019-04-23T15:59:51.997Z,2.50
2019-04-23T16:01:52.490Z,2.17
2019-04-23T16:04:21.508Z,2.70
2019-04-23T16:06:51.809Z,3.10
2019-04-23T16:10:00.056Z,2.20
2019-04-23T16:12:24.554Z,2.60
2019-04-23T16:14:56.819Z,2.63
2019-04-23T16:20:07.753Z,2.00
2019-04-23T16:22:33.236Z,2.70
2019-04-23T16:25:09.847Z,2.30
2019-04-23T16:27:31.967Z,2.40
2019-04-23T16:33:04.536Z,2.10
2019-04-23T16:35:46.576Z,2.00
2019-04-23T16:38:18.541Z,1.90
2019-04-23T16:40:37.854Z,2.00
2019-04-23T16:43:11.414Z,1.90
2019-04-23T16:45:40.603Z,1.60
2019-04-23T16:48:25.137Z,1.63
2019-04-23T16:51:11.262Z,1.60
2019-04-23T16:53:24.137Z,1.50
2019-04-23T16:56:08.298Z,1.43
2019-04-23T16:58:35.067Z,1.70
2019-04-23T17:03:31.874Z,1.70
2019-04-23T17:06:18.660Z,1.73
2019-04-23T17:11:10.496Z,1.77
2019-04-23T17:16:32.360Z,1.70
2019-04-23T17:19:01.965Z,2.70
2019-04-23T17:21:32.653Z,2.63
2019-04-23T17:24:09.494Z,2.40
2019-04-23T17:26:29.112Z,2.37
2019-04-23T17:31:35.511Z,2.30
2019-04-23T17:34:09.099Z,2.30
2019-04-23T17:36:57.030Z,2.97
2019-04-23T17:39:31.110Z,2.63
2019-04-23T17:42:27.317Z,2.73
2019-04-23T17:45:16.825Z,2.23
2019-04-23T17:47:35.254Z,2.40
2019-04-23T17:50:20.205Z,2.37
2019-04-23T17:52:43.185Z,2.70
2019-04-23T17:55:13.402Z,3.17
2019-04-23T17:57:38.028Z,2.50
2019-04-23T18:12:56.650Z,3.20
2019-04-23T18:15:14.828Z,2.97
2019-04-23T18:17:52.610Z,2.83
2019-04-23T18:20:31.603Z,3.23
2019-04-23T18:23:05.666Z,3.13
2019-04-23T18:28:10.360Z,2.70
2019-04-23T18:31:06.178Z,2.77
2019-04-23T18:36:26.192Z,3.87
2019-04-23T18:38:59.754Z,3.80
2019-04-23T18:41:27.358Z,3.20
2019-04-23T18:44:05.920Z,3.77
2019-04-23T18:46:36.643Z,3.00
2019-04-23T18:49:05.716Z,3.63
2019-04-23T18:51:38.506Z,3.47
2019-04-23T18:53:56.547Z,3.43
2019-04-23T18:56:57.326Z,3.70
2019-04-23T18:59:28.720Z,3.80
2019-04-23T19:02:02.491Z,3.77
2019-04-23T19:10:45.858Z,3.60
2019-04-23T19:13:22.765Z,3.30
2019-04-23T19:15:42.322Z,3.23
2019-04-23T19:18:23.964Z,3.53
2019-04-23T19:21:02.575Z,3.03
2019-04-23T19:25:51.738Z,3.60
2019-04-23T19:31:01.910Z,3.57
2019-04-23T19:33:49.210Z,4.60
2019-04-23T19:36:14.586Z,3.57
2019-04-23T19:38:36.320Z,4.00
2019-04-23T19:41:14.392Z,4.03
2019-04-23T19:43:41.536Z,4.30
2019-04-23T19:46:34.865Z,3.87
2019-04-23T19:53:55.495Z,3.73
2019-04-23T19:56:16.162Z,4.53
2019-04-23T20:11:32.440Z,4.50
2019-04-23T20:14:03.184Z,4.10
2019-04-23T20:16:31.045Z,4.43
2019-04-23T20:21:28.334Z,4.50
2019-04-23T20:24:03.997Z,4.57
2019-04-23T20:26:23.377Z,4.23
2019-04-23T20:39:42.085Z,4.20
2019-04-23T20:44:47.513Z,4.27
2019-04-23T20:47:11.491Z,4.33
2019-04-23T20:52:07.168Z,4.83
2019-04-23T20:57:42.837Z,3.50
2019-04-23T21:00:08.696Z,4.60
2019-04-23T21:05:24.116Z,5.10
2019-04-23T21:10:35.756Z,4.85
2019-04-23T21:15:37.436Z,4.77
2019-04-23T21:18:10.866Z,4.77
2019-04-23T21:23:08.879Z,4.17
2019-04-23T21:25:43.076Z,4.60
2019-04-23T21:28:29.376Z,4.47
2019-04-23T21:42:01.398Z,4.27
2019-04-23T21:44:27.036Z,4.30
2019-04-23T21:46:56.538Z,5.30
2019-04-23T21:51:57.474Z,4.20
2019-04-23T21:54:29.302Z,4.17
2019-04-23T21:57:17.969Z,4.17
2019-04-23T21:59:28.623Z,4.40
2019-04-23T22:02:04.039Z,5.20
2019-04-23T22:07:01.968Z,4.80
2019-04-23T22:12:09.047Z,5.30
2019-04-23T22:14:40.133Z,4.33
2019-04-23T22:17:10.327Z,4.10
2019-04-23T22:19:44.870Z,5.00
2019-04-23T22:22:10.848Z,5.50
2019-04-23T22:24:51.498Z,5.00
2019-04-23T22:27:13.270Z,4.97
2019-04-23T22:29:45.122Z,4.80
2019-04-23T22:32:12.973Z,5.97
2019-04-23T22:34:49.175Z,4.23
2019-04-23T22:37:17.757Z,4.90
2019-04-23T22:39:55.567Z,4.30
2019-04-23T22:42:34.895Z,4.77
2019-04-23T22:45:00.537Z,5.23
2019-04-23T22:47:17.648Z,4.77
2019-04-23T22:50:00.826Z,4.27
2019-04-23T22:55:02.257Z,4.43
2019-04-23T22:57:32.771Z,4.90
2019-04-23T23:00:11.289Z,4.70
2019-04-23T23:02:55.621Z,5.00
2019-04-23T23:05:29.376Z,5.00
2019-04-23T23:13:01.742Z,5.33
2019-04-23T23:15:24.509Z,5.03
2019-04-23T23:18:02.414Z,4.73
2019-04-23T23:20:39.693Z,4.97
2019-04-23T23:23:06.115Z,4.87
2019-04-23T23:27:57.773Z,5.40
2019-04-23T23:30:31.024Z,4.80
2019-04-23T23:33:08.084Z,5.20
2019-04-23T23:38:00.747Z,4.93
2019-04-23T23:40:25.552Z,5.13
2019-04-23T23:48:08.107Z,4.90
2019-04-23T23:50:52.075Z,5.00
2019-04-23T23:55:37.922Z,4.53
2019-04-23T23:58:14.896Z,4.77
